Terminal Aerodrome Forecast
Issued by NWS

Home | Current Version | Previous Version | Text Only | Print | Product List | Glossary On
Versions: 1 2 3 4 5 6 7 8 9 10 11 12 13 14 15
310
FTUS41 KBTV 182340
TAFRUT
TAF
KRUT 182340Z 1900/1924 14007KT P6SM VCSH OVC035
     FM190300 16005KT P6SM VCSH OVC020
     FM190500 18004KT P6SM VCSH OVC015
     FM190600 VRB03KT 6SM BR OVC015
     FM191200 VRB03KT P6SM OVC020
     FM192000 29004KT P6SM OVC035=

USA.gov is the U.S. government's official web portal to all federal, state and local government web resources and services.